THY9ZP LTAC-LTFM
Flight info
| Callsign | THY9ZP |
|---|---|
| Flight time | 0h 42m |
| Altitude | 28000 |
| Route | YAVRU A4 ERSEN |
| Aircraft | B77W/H-SDE1E2E3FGHIJ2J3J4J5M1RWXY/LB1D1 |
Departure
| Time | 2026-05-06 17:19 |
|---|---|
| Airport | Esenboğa International Airport (LTAC) |
Arrival
| Time | 2026-05-06 18:01 |
|---|---|
| Airport | İstanbul Airport (LTFM) |
| Time | Latitude | Longitude | Altitude | Speed | Heading |
|---|---|---|---|---|---|
| 2026-05-06 16:08 | 40.11671 | 32.99290 | 3118 ft | 0 kts | 159° |
| 2026-05-06 17:03 | 40.11691 | 32.99280 | 3118 ft | 4 kts | 159° |
| 2026-05-06 17:03 | 40.11714 | 32.99269 | 3118 ft | 3 kts | 159° |
| 2026-05-06 17:03 | 40.11732 | 32.99253 | 3118 ft | 4 kts | 101° |
| 2026-05-06 17:03 | 40.11727 | 32.99224 | 3118 ft | 4 kts | 58° |
| 2026-05-06 17:04 | 40.11715 | 32.99199 | 3118 ft | 1 kts | 65° |
| 2026-05-06 17:07 | 40.11725 | 32.99210 | 3118 ft | 5 kts | 33° |
| 2026-05-06 17:07 | 40.11763 | 32.99179 | 3118 ft | 10 kts | 290° |
| 2026-05-06 17:07 | 40.11794 | 32.99065 | 3118 ft | 11 kts | 303° |
| 2026-05-06 17:07 | 40.11869 | 32.99066 | 3119 ft | 16 kts | 33° |
| 2026-05-06 17:08 | 40.11985 | 32.99175 | 3120 ft | 26 kts | 36° |
| 2026-05-06 17:08 | 40.12155 | 32.99338 | 3122 ft | 34 kts | 36° |
| 2026-05-06 17:08 | 40.12276 | 32.99452 | 3124 ft | 19 kts | 36° |
| 2026-05-06 17:08 | 40.12384 | 32.99556 | 3120 ft | 19 kts | 36° |
| 2026-05-06 17:09 | 40.12493 | 32.99660 | 3124 ft | 19 kts | 37° |
| 2026-05-06 17:09 | 40.12602 | 32.99764 | 3124 ft | 19 kts | 36° |
| 2026-05-06 17:09 | 40.12710 | 32.99868 | 3124 ft | 19 kts | 36° |
| 2026-05-06 17:09 | 40.12819 | 32.99972 | 3125 ft | 19 kts | 36° |
| 2026-05-06 17:10 | 40.12928 | 33.00075 | 3128 ft | 19 kts | 36° |
| 2026-05-06 17:10 | 40.13036 | 33.00180 | 3127 ft | 19 kts | 36° |
| 2026-05-06 17:10 | 40.13145 | 33.00283 | 3129 ft | 19 kts | 36° |
| 2026-05-06 17:10 | 40.13253 | 33.00386 | 3131 ft | 19 kts | 36° |
| 2026-05-06 17:11 | 40.13361 | 33.00489 | 3131 ft | 19 kts | 36° |
| 2026-05-06 17:11 | 40.13458 | 33.00582 | 3133 ft | 16 kts | 36° |
| 2026-05-06 17:11 | 40.13547 | 33.00668 | 3133 ft | 16 kts | 36° |
| 2026-05-06 17:11 | 40.13634 | 33.00751 | 3137 ft | 15 kts | 36° |
| 2026-05-06 17:12 | 40.13721 | 33.00833 | 3138 ft | 15 kts | 36° |
| 2026-05-06 17:12 | 40.13806 | 33.00914 | 3139 ft | 14 kts | 36° |
| 2026-05-06 17:12 | 40.13876 | 33.00981 | 3140 ft | 12 kts | 37° |
| 2026-05-06 17:12 | 40.13945 | 33.01047 | 3140 ft | 12 kts | 34° |
| 2026-05-06 17:13 | 40.14027 | 33.01072 | 3141 ft | 12 kts | 352° |
| 2026-05-06 17:13 | 40.14070 | 33.01044 | 3141 ft | 0 kts | 320° |
| 2026-05-06 17:17 | 40.14071 | 33.01044 | 3141 ft | 0 kts | 319° |
| 2026-05-06 17:17 | 40.14091 | 33.01006 | 3141 ft | 11 kts | 296° |
| 2026-05-06 17:17 | 40.14143 | 33.00873 | 3141 ft | 18 kts | 307° |
| 2026-05-06 17:17 | 40.14194 | 33.00786 | 3141 ft | 12 kts | 306° |
| 2026-05-06 17:18 | 40.14194 | 33.00678 | 3140 ft | 15 kts | 227° |
| 2026-05-06 17:18 | 40.14084 | 33.00570 | 3140 ft | 29 kts | 216° |
| 2026-05-06 17:18 | 40.13817 | 33.00314 | 3137 ft | 77 kts | 216° |
| 2026-05-06 17:18 | 40.13160 | 32.99687 | 3128 ft | 156 kts | 216° |
| 2026-05-06 17:19 | 40.12121 | 32.98728 | 3397 ft | 197 kts | 216° |
| 2026-05-06 17:19 | 40.10973 | 32.97651 | 4106 ft | 212 kts | 218° |
| 2026-05-06 17:19 | 40.09716 | 32.96445 | 4757 ft | 237 kts | 217° |
| 2026-05-06 17:19 | 40.08338 | 32.95135 | 5459 ft | 258 kts | 217° |
| 2026-05-06 17:20 | 40.06835 | 32.93720 | 6147 ft | 269 kts | 217° |
| 2026-05-06 17:20 | 40.05309 | 32.92289 | 6772 ft | 269 kts | 217° |
| 2026-05-06 17:20 | 40.03801 | 32.90846 | 7322 ft | 268 kts | 222° |
| 2026-05-06 17:20 | 40.02703 | 32.88874 | 7826 ft | 275 kts | 250° |
| 2026-05-06 17:21 | 40.02427 | 32.86413 | 8361 ft | 279 kts | 275° |
| 2026-05-06 17:21 | 40.02951 | 32.83973 | 8877 ft | 283 kts | 299° |
| 2026-05-06 17:21 | 40.04099 | 32.81898 | 9412 ft | 283 kts | 307° |
| 2026-05-06 17:21 | 40.05312 | 32.79846 | 9961 ft | 289 kts | 307° |
| 2026-05-06 17:22 | 40.06543 | 32.77718 | 10472 ft | 298 kts | 306° |
| 2026-05-06 17:22 | 40.07806 | 32.75522 | 11033 ft | 306 kts | 306° |
| 2026-05-06 17:22 | 40.09099 | 32.73265 | 11612 ft | 315 kts | 307° |
| 2026-05-06 17:22 | 40.10430 | 32.70941 | 12190 ft | 324 kts | 307° |
| 2026-05-06 17:23 | 40.11794 | 32.68551 | 12785 ft | 331 kts | 307° |
| 2026-05-06 17:23 | 40.13187 | 32.66106 | 13398 ft | 338 kts | 307° |
| 2026-05-06 17:23 | 40.14607 | 32.63612 | 13905 ft | 346 kts | 307° |
| 2026-05-06 17:23 | 40.16053 | 32.61071 | 14369 ft | 348 kts | 307° |
| 2026-05-06 17:24 | 40.17499 | 32.58531 | 14824 ft | 349 kts | 307° |
| 2026-05-06 17:24 | 40.18948 | 32.55979 | 15310 ft | 352 kts | 307° |
| 2026-05-06 17:24 | 40.20421 | 32.53394 | 15815 ft | 356 kts | 308° |
| 2026-05-06 17:24 | 40.22076 | 32.50961 | 16320 ft | 359 kts | 316° |
| 2026-05-06 17:25 | 40.23884 | 32.48746 | 16849 ft | 363 kts | 318° |
| 2026-05-06 17:25 | 40.25770 | 32.46533 | 17370 ft | 366 kts | 319° |
| 2026-05-06 17:25 | 40.27667 | 32.44292 | 17909 ft | 368 kts | 318° |
| 2026-05-06 17:25 | 40.29555 | 32.42024 | 18453 ft | 370 kts | 318° |
| 2026-05-06 17:26 | 40.31447 | 32.39716 | 18824 ft | 374 kts | 317° |
| 2026-05-06 17:26 | 40.33352 | 32.37371 | 19173 ft | 376 kts | 317° |
| 2026-05-06 17:26 | 40.35261 | 32.35008 | 19565 ft | 379 kts | 317° |
| 2026-05-06 17:26 | 40.37178 | 32.32632 | 19920 ft | 380 kts | 317° |
| 2026-05-06 17:27 | 40.39101 | 32.30247 | 20284 ft | 381 kts | 317° |
| 2026-05-06 17:27 | 40.41030 | 32.27854 | 20674 ft | 381 kts | 317° |
| 2026-05-06 17:27 | 40.42959 | 32.25458 | 21047 ft | 382 kts | 317° |
| 2026-05-06 17:27 | 40.44889 | 32.23059 | 21433 ft | 383 kts | 317° |
| 2026-05-06 17:28 | 40.46787 | 32.20614 | 21829 ft | 382 kts | 312° |
| 2026-05-06 17:28 | 40.48188 | 32.17661 | 22216 ft | 382 kts | 294° |
| 2026-05-06 17:28 | 40.49118 | 32.14409 | 22664 ft | 380 kts | 292° |
| 2026-05-06 17:28 | 40.50043 | 32.11155 | 23056 ft | 381 kts | 293° |
| 2026-05-06 17:29 | 40.50983 | 32.07896 | 23439 ft | 381 kts | 293° |
| 2026-05-06 17:29 | 40.51944 | 32.04603 | 23848 ft | 392 kts | 293° |
| 2026-05-06 17:29 | 40.52940 | 32.01212 | 24373 ft | 402 kts | 293° |
| 2026-05-06 17:29 | 40.53952 | 31.97772 | 24803 ft | 404 kts | 293° |
| 2026-05-06 17:30 | 40.54962 | 31.94333 | 25225 ft | 403 kts | 293° |
| 2026-05-06 17:30 | 40.55976 | 31.90880 | 25675 ft | 405 kts | 294° |
| 2026-05-06 17:30 | 40.56997 | 31.87408 | 26130 ft | 408 kts | 294° |
| 2026-05-06 17:30 | 40.58008 | 31.83964 | 26582 ft | 410 kts | 294° |
| 2026-05-06 17:31 | 40.58998 | 31.80426 | 27042 ft | 413 kts | 292° |
| 2026-05-06 17:31 | 40.59907 | 31.76838 | 27511 ft | 415 kts | 291° |
| 2026-05-06 17:31 | 40.60788 | 31.73207 | 27980 ft | 417 kts | 290° |
| 2026-05-06 17:31 | 40.61671 | 31.69546 | 28116 ft | 423 kts | 290° |
| 2026-05-06 17:32 | 40.62566 | 31.65852 | 28110 ft | 422 kts | 290° |
| 2026-05-06 17:32 | 40.64356 | 31.58515 | 28117 ft | 423 kts | 290° |
| 2026-05-06 17:33 | 40.66189 | 31.51061 | 28100 ft | 424 kts | 290° |
| 2026-05-06 17:33 | 40.67992 | 31.43717 | 28110 ft | 422 kts | 290° |
| 2026-05-06 17:34 | 40.69810 | 31.36299 | 28110 ft | 427 kts | 290° |
| 2026-05-06 17:34 | 40.71638 | 31.28818 | 28113 ft | 430 kts | 290° |
| 2026-05-06 17:35 | 40.73455 | 31.21286 | 28102 ft | 432 kts | 288° |
| 2026-05-06 17:35 | 40.74573 | 31.13469 | 28094 ft | 436 kts | 279° |
| 2026-05-06 17:36 | 40.75587 | 31.01533 | 28101 ft | 437 kts | 279° |
| 2026-05-06 17:36 | 40.76254 | 30.93558 | 28091 ft | 437 kts | 279° |
| 2026-05-06 17:37 | 40.76927 | 30.85605 | 28103 ft | 436 kts | 279° |
| 2026-05-06 17:37 | 40.77590 | 30.77747 | 28078 ft | 425 kts | 279° |
| 2026-05-06 17:38 | 40.78245 | 30.69971 | 28079 ft | 421 kts | 279° |
| 2026-05-06 17:38 | 40.78557 | 30.66229 | 28064 ft | 410 kts | 279° |
| 2026-05-06 17:38 | 40.78864 | 30.62523 | 28012 ft | 405 kts | 279° |
| 2026-05-06 17:39 | 40.79172 | 30.58813 | 27974 ft | 408 kts | 279° |
| 2026-05-06 17:39 | 40.79485 | 30.55065 | 27560 ft | 413 kts | 279° |
| 2026-05-06 17:39 | 40.79796 | 30.51308 | 27066 ft | 411 kts | 279° |
| 2026-05-06 17:39 | 40.80103 | 30.47573 | 26550 ft | 408 kts | 278° |
| 2026-05-06 17:40 | 40.80406 | 30.43855 | 26005 ft | 406 kts | 278° |
| 2026-05-06 17:40 | 40.80705 | 30.40167 | 25492 ft | 403 kts | 278° |
| 2026-05-06 17:40 | 40.81001 | 30.36505 | 25011 ft | 400 kts | 278° |
| 2026-05-06 17:40 | 40.81294 | 30.32876 | 24514 ft | 397 kts | 278° |
| 2026-05-06 17:41 | 40.81585 | 30.29253 | 24021 ft | 396 kts | 278° |
| 2026-05-06 17:41 | 40.81874 | 30.25644 | 23488 ft | 395 kts | 278° |
| 2026-05-06 17:41 | 40.82160 | 30.22054 | 22899 ft | 393 kts | 278° |
| 2026-05-06 17:41 | 40.82445 | 30.18476 | 22313 ft | 391 kts | 278° |
| 2026-05-06 17:42 | 40.82727 | 30.14911 | 21745 ft | 390 kts | 278° |
| 2026-05-06 17:42 | 40.83007 | 30.11358 | 21170 ft | 388 kts | 278° |
| 2026-05-06 17:42 | 40.83285 | 30.07818 | 20621 ft | 387 kts | 278° |
| 2026-05-06 17:42 | 40.83560 | 30.04300 | 20203 ft | 382 kts | 278° |
| 2026-05-06 17:43 | 40.83821 | 30.00904 | 19869 ft | 362 kts | 278° |
| 2026-05-06 17:43 | 40.84070 | 29.97653 | 19423 ft | 349 kts | 278° |
| 2026-05-06 17:43 | 40.84310 | 29.94518 | 18970 ft | 337 kts | 278° |
| 2026-05-06 17:43 | 40.84542 | 29.91494 | 18539 ft | 326 kts | 278° |
| 2026-05-06 17:44 | 40.84770 | 29.88555 | 18072 ft | 317 kts | 278° |
| 2026-05-06 17:44 | 40.84989 | 29.85683 | 17591 ft | 313 kts | 278° |
| 2026-05-06 17:44 | 40.85211 | 29.82802 | 17199 ft | 317 kts | 278° |
| 2026-05-06 17:44 | 40.85359 | 29.80878 | 16933 ft | 319 kts | 279° |
| 2026-05-06 17:45 | 40.85582 | 29.77960 | 16522 ft | 319 kts | 279° |
| 2026-05-06 17:45 | 40.85803 | 29.75047 | 16126 ft | 318 kts | 279° |
| 2026-05-06 17:45 | 40.86022 | 29.72141 | 15723 ft | 317 kts | 279° |
| 2026-05-06 17:45 | 40.86240 | 29.69245 | 15327 ft | 316 kts | 279° |
| 2026-05-06 17:46 | 40.86456 | 29.66353 | 14939 ft | 315 kts | 279° |
| 2026-05-06 17:46 | 40.86669 | 29.63471 | 14567 ft | 314 kts | 279° |
| 2026-05-06 17:46 | 40.86883 | 29.60596 | 14145 ft | 315 kts | 279° |
| 2026-05-06 17:46 | 40.87096 | 29.57715 | 13716 ft | 316 kts | 279° |
| 2026-05-06 17:47 | 40.87312 | 29.54823 | 13190 ft | 314 kts | 278° |
| 2026-05-06 17:47 | 40.87520 | 29.51985 | 12588 ft | 307 kts | 279° |
| 2026-05-06 17:47 | 40.87722 | 29.49207 | 12018 ft | 300 kts | 279° |
| 2026-05-06 17:47 | 40.87916 | 29.46525 | 11522 ft | 293 kts | 279° |
| 2026-05-06 17:48 | 40.88107 | 29.43886 | 11074 ft | 285 kts | 279° |
| 2026-05-06 17:48 | 40.88294 | 29.41302 | 10624 ft | 279 kts | 279° |
| 2026-05-06 17:48 | 40.88480 | 29.38736 | 10279 ft | 282 kts | 279° |
| 2026-05-06 17:48 | 40.88670 | 29.36135 | 9918 ft | 287 kts | 279° |
| 2026-05-06 17:49 | 40.88862 | 29.33498 | 9504 ft | 289 kts | 278° |
| 2026-05-06 17:49 | 40.89052 | 29.30851 | 9112 ft | 289 kts | 278° |
| 2026-05-06 17:49 | 40.89239 | 29.28225 | 8793 ft | 286 kts | 278° |
| 2026-05-06 17:49 | 40.89424 | 29.25617 | 8483 ft | 283 kts | 278° |
| 2026-05-06 17:50 | 40.89607 | 29.23036 | 8169 ft | 280 kts | 279° |
| 2026-05-06 17:50 | 40.89787 | 29.20486 | 7867 ft | 277 kts | 279° |
| 2026-05-06 17:50 | 40.89964 | 29.17963 | 7584 ft | 274 kts | 279° |
| 2026-05-06 17:50 | 40.90137 | 29.15502 | 7339 ft | 270 kts | 279° |
| 2026-05-06 17:51 | 40.90309 | 29.13049 | 7085 ft | 266 kts | 279° |
| 2026-05-06 17:51 | 40.90479 | 29.10625 | 6835 ft | 263 kts | 278° |
| 2026-05-06 17:51 | 40.90646 | 29.08241 | 6589 ft | 259 kts | 278° |
| 2026-05-06 17:51 | 40.90810 | 29.05885 | 6338 ft | 256 kts | 278° |
| 2026-05-06 17:52 | 40.90970 | 29.03559 | 6075 ft | 253 kts | 278° |
| 2026-05-06 17:52 | 40.91129 | 29.01257 | 5821 ft | 249 kts | 278° |
| 2026-05-06 17:52 | 40.91314 | 28.98998 | 5555 ft | 245 kts | 279° |
| 2026-05-06 17:52 | 40.91513 | 28.96778 | 5298 ft | 242 kts | 279° |
| 2026-05-06 17:53 | 40.91708 | 28.94589 | 5065 ft | 236 kts | 279° |
| 2026-05-06 17:53 | 40.91897 | 28.92445 | 5030 ft | 236 kts | 279° |
| 2026-05-06 17:53 | 40.92087 | 28.90277 | 4933 ft | 238 kts | 279° |
| 2026-05-06 17:53 | 40.92279 | 28.88093 | 4682 ft | 240 kts | 279° |
| 2026-05-06 17:54 | 40.92470 | 28.85907 | 4405 ft | 238 kts | 279° |
| 2026-05-06 17:54 | 40.92657 | 28.83741 | 4169 ft | 234 kts | 278° |
| 2026-05-06 17:54 | 40.92836 | 28.81677 | 4094 ft | 225 kts | 279° |
| 2026-05-06 17:54 | 40.93323 | 28.79732 | 3993 ft | 225 kts | 307° |
| 2026-05-06 17:55 | 40.94500 | 28.78408 | 3979 ft | 223 kts | 328° |
| 2026-05-06 17:55 | 40.95832 | 28.77371 | 3968 ft | 222 kts | 329° |
| 2026-05-06 17:55 | 40.97173 | 28.76382 | 3951 ft | 218 kts | 338° |
| 2026-05-06 17:55 | 40.98670 | 28.76137 | 3978 ft | 220 kts | 359° |
| 2026-05-06 17:56 | 41.00233 | 28.76151 | 3983 ft | 227 kts | 358° |
| 2026-05-06 17:56 | 41.01817 | 28.76134 | 3971 ft | 227 kts | 358° |
| 2026-05-06 17:56 | 41.03367 | 28.76114 | 3950 ft | 217 kts | 357° |
| 2026-05-06 17:56 | 41.04817 | 28.76090 | 3974 ft | 202 kts | 357° |
| 2026-05-06 17:57 | 41.06255 | 28.76060 | 3977 ft | 207 kts | 357° |
| 2026-05-06 17:57 | 41.07671 | 28.76033 | 3953 ft | 199 kts | 357° |
| 2026-05-06 17:57 | 41.09057 | 28.76005 | 3687 ft | 198 kts | 357° |
| 2026-05-06 17:57 | 41.10418 | 28.75980 | 3429 ft | 194 kts | 357° |
| 2026-05-06 17:58 | 41.11759 | 28.75952 | 3176 ft | 191 kts | 358° |
| 2026-05-06 17:58 | 41.13069 | 28.75927 | 2920 ft | 186 kts | 358° |
| 2026-05-06 17:58 | 41.14347 | 28.75902 | 2677 ft | 182 kts | 358° |
| 2026-05-06 17:58 | 41.15618 | 28.75877 | 2435 ft | 183 kts | 358° |
| 2026-05-06 17:59 | 41.16899 | 28.75852 | 2187 ft | 186 kts | 358° |
| 2026-05-06 17:59 | 41.18184 | 28.75826 | 1950 ft | 181 kts | 359° |
| 2026-05-06 17:59 | 41.19416 | 28.75802 | 1704 ft | 173 kts | 359° |
| 2026-05-06 17:59 | 41.20574 | 28.75779 | 1467 ft | 162 kts | 359° |
| 2026-05-06 18:00 | 41.21671 | 28.75757 | 1256 ft | 154 kts | 359° |
| 2026-05-06 18:00 | 41.22722 | 28.75726 | 1063 ft | 150 kts | 0° |
| 2026-05-06 18:00 | 41.23763 | 28.75705 | 859 ft | 152 kts | 1° |
| 2026-05-06 18:00 | 41.24806 | 28.75678 | 661 ft | 149 kts | 2° |
| 2026-05-06 18:01 | 41.25842 | 28.75673 | 458 ft | 149 kts | 2° |
| 2026-05-06 18:01 | 41.26855 | 28.75656 | 339 ft | 136 kts | 2° |
| 2026-05-06 18:01 | 41.27660 | 28.75637 | 335 ft | 65 kts | 359° |
| 2026-05-06 18:01 | 41.27927 | 28.75625 | 337 ft | 32 kts | 349° |
| 2026-05-06 18:02 | 41.28104 | 28.75522 | 334 ft | 15 kts | 331° |
| 2026-05-06 18:02 | 41.28152 | 28.75397 | 334 ft | 18 kts | 251° |
| 2026-05-06 18:02 | 41.28031 | 28.75352 | 335 ft | 22 kts | 179° |
| 2026-05-06 18:02 | 41.27864 | 28.75355 | 334 ft | 26 kts | 179° |
| 2026-05-06 18:03 | 41.27674 | 28.75358 | 334 ft | 22 kts | 179° |
| 2026-05-06 18:03 | 41.27529 | 28.75362 | 336 ft | 19 kts | 178° |
| 2026-05-06 18:03 | 41.27396 | 28.75365 | 337 ft | 19 kts | 179° |
| 2026-05-06 18:03 | 41.27264 | 28.75368 | 338 ft | 19 kts | 179° |
| 2026-05-06 18:04 | 41.27146 | 28.75371 | 336 ft | 12 kts | 179° |
| 2026-05-06 18:04 | 41.27095 | 28.75356 | 336 ft | 2 kts | 223° |
| 2026-05-06 18:04 | 41.27088 | 28.75344 | 334 ft | 4 kts | 232° |
| 2026-05-06 18:04 | 41.27052 | 28.75274 | 334 ft | 14 kts | 217° |
| 2026-05-06 18:05 | 41.26921 | 28.75263 | 335 ft | 24 kts | 179° |
| 2026-05-06 18:05 | 41.26753 | 28.75267 | 334 ft | 24 kts | 179° |
| 2026-05-06 18:05 | 41.26591 | 28.75271 | 335 ft | 22 kts | 180° |
| 2026-05-06 18:05 | 41.26440 | 28.75273 | 334 ft | 22 kts | 178° |
| 2026-05-06 18:06 | 41.26307 | 28.75277 | 334 ft | 13 kts | 179° |
| 2026-05-06 18:06 | 41.26214 | 28.75279 | 337 ft | 14 kts | 179° |
| 2026-05-06 18:06 | 41.26117 | 28.75281 | 337 ft | 14 kts | 179° |
| 2026-05-06 18:06 | 41.26017 | 28.75283 | 334 ft | 15 kts | 179° |
| 2026-05-06 18:07 | 41.25915 | 28.75286 | 337 ft | 15 kts | 179° |
| 2026-05-06 18:07 | 41.25812 | 28.75288 | 335 ft | 15 kts | 179° |
| 2026-05-06 18:07 | 41.25706 | 28.75291 | 337 ft | 14 kts | 179° |
| 2026-05-06 18:07 | 41.25651 | 28.75204 | 335 ft | 15 kts | 263° |
| 2026-05-06 18:08 | 41.25655 | 28.75072 | 335 ft | 11 kts | 303° |
| 2026-05-06 18:08 | 41.25721 | 28.75045 | 334 ft | 0 kts | 357° |